Time;durP1;ratioP1;P1;durP2;ratioP2;P2;SDS_P1;SDS_P2;PMS_P1;PMS_P2;Temp;Humidity;BMP_temperature;BMP_pressure;BME280_temperature;BME280_humidity;BME280_pressure;Samples;Min_cycle;Max_cycle;Signal;HPM_P1;HPM_P2
2021/12/10 00:01:03;;;;;;;5.45;3.25;;;-1.00;99.90;;;;;;4375894;32;20153;-65
2021/12/10 00:03:39;;;;;;;6.47;3.50;;;-1.00;99.90;;;;;;4377761;32;20066;-64
2021/12/10 00:06:13;;;;;;;;;;;-1.00;99.90;;;;;;4375684;32;20127;-65
2021/12/10 00:08:45;;;;;;;5.60;3.10;;;-1.10;99.90;;;;;;4376063;32;19984;-65
2021/12/10 00:11:20;;;;;;;5.57;3.42;;;-1.00;99.90;;;;;;4375880;32;20131;-65
2021/12/10 00:13:49;;;;;;;4.55;2.72;;;-1.00;99.90;;;;;;4376406;32;20156;-65
2021/12/10 00:16:18;;;;;;;4.20;2.97;;;-1.00;99.90;;;;;;4376025;32;20114;-65
2021/12/10 00:18:53;;;;;;;4.72;3.10;;;-0.90;99.90;;;;;;4376344;32;20447;-64
2021/12/10 00:21:23;;;;;;;5.30;3.03;;;-1.00;99.90;;;;;;4376626;32;20082;-65
2021/12/10 00:23:50;;;;;;;6.40;3.30;;;-1.10;99.90;;;;;;4376084;32;20073;-65
2021/12/10 00:26:20;;;;;;;5.15;3.08;;;-1.00;99.90;;;;;;4375488;32;20159;-65
2021/12/10 00:28:48;;;;;;;5.43;3.70;;;-1.00;99.90;;;;;;4363074;32;20082;-65
2021/12/10 00:31:42;;;;;;;5.97;3.75;;;-1.00;99.90;;;;;;4375992;32;20520;-64
2021/12/10 00:34:23;;;;;;;6.07;3.45;;;-1.00;99.90;;;;;;4362839;32;20081;-65
2021/12/10 00:36:54;;;;;;;6.10;3.90;;;-1.00;99.90;;;;;;4375376;32;20081;-66
2021/12/10 00:39:34;;;;;;;8.02;4.15;;;-1.00;99.90;;;;;;4363204;32;20584;-65
2021/12/10 00:42:05;;;;;;;5.80;3.97;;;-1.00;99.90;;;;;;4362785;32;20078;-66
2021/12/10 00:44:31;;;;;;;7.45;4.12;;;-1.00;99.90;;;;;;4362791;32;20077;-64
2021/12/10 00:46:58;;;;;;;6.07;3.60;;;-1.00;99.90;;;;;;4375124;32;20159;-64
2021/12/10 00:49:24;;;;;;;5.45;3.50;;;-1.00;99.90;;;;;;4375478;32;20101;-66
2021/12/10 00:51:51;;;;;;;5.07;3.60;;;-1.00;99.90;;;;;;4362663;32;20066;-65
2021/12/10 00:54:19;;;;;;;4.95;3.03;;;-1.00;99.90;;;;;;4362582;32;20077;-64
2021/12/10 00:56:46;;;;;;;6.85;3.85;;;-1.00;99.90;;;;;;4375552;32;20529;-65
2021/12/10 01:01:56;;;;;;;6.37;3.93;;;-1.00;99.90;;;;;;3857372;37;20077;-66
2021/12/10 01:04:32;;;;;;;5.95;3.53;;;-1.10;99.90;;;;;;4418486;32;20155;-66
2021/12/10 01:07:05;;;;;;;6.50;3.85;;;-1.10;99.90;;;;;;4420183;32;20068;-65
2021/12/10 01:09:36;;;;;;;7.72;4.07;;;-1.10;99.90;;;;;;4419693;32;20111;-64
2021/12/10 01:12:44;;;;;;;7.47;4.50;;;-1.00;99.90;;;;;;4405301;32;20078;-65
2021/12/10 01:23:56;;;;;;;6.40;4.37;;;-1.10;99.90;;;;;;4406977;32;20588;-65
2021/12/10 01:26:50;;;;;;;6.47;3.92;;;-1.20;99.90;;;;;;4418081;32;20181;-64
2021/12/10 01:29:33;;;;;;;6.65;4.53;;;-1.10;99.90;;;;;;4418218;32;20080;-66
2021/12/10 01:32:05;;;;;;;8.40;5.15;;;-1.20;99.90;;;;;;4405308;32;20100;-65
2021/12/10 01:34:32;;;;;;;9.60;6.32;;;-1.20;99.90;;;;;;4417783;32;20074;-65
2021/12/10 01:37:01;;;;;;;11.57;6.45;;;-1.20;99.90;;;;;;4417981;32;20090;-66
2021/12/10 01:39:33;;;;;;;9.95;6.03;;;-1.20;99.90;;;;;;4417767;32;20195;-65
2021/12/10 01:42:14;;;;;;;9.15;5.68;;;-1.10;99.90;;;;;;4405456;32;20077;-66
2021/12/10 01:44:45;;;;;;;8.30;4.32;;;-1.20;99.90;;;;;;4406589;32;20166;-65
2021/12/10 01:47:16;;;;;;;6.28;4.43;;;-1.20;99.90;;;;;;4404796;32;20515;-65
2021/12/10 01:49:43;;;;;;;7.47;4.53;;;-1.20;99.90;;;;;;4405026;32;20164;-64
2021/12/10 01:52:16;;;;;;;7.30;4.40;;;-1.30;99.90;;;;;;4411964;32;20089;-65
2021/12/10 01:54:51;;;;;;;8.40;4.68;;;-1.20;99.90;;;;;;4389721;32;20093;-65
2021/12/10 01:57:23;;;;;;;7.73;4.73;;;-1.20;99.90;;;;;;4390341;32;20097;-65
2021/12/10 01:59:50;;;;;;;6.62;3.90;;;-1.20;99.90;;;;;;4402644;32;20939;-65
2021/12/10 02:02:30;;;;;;;6.50;4.45;;;-1.30;99.90;;;;;;4404189;32;20070;-65
2021/12/10 02:04:58;;;;;;;7.20;5.12;;;-1.30;99.90;;;;;;4389890;32;20149;-65
2021/12/10 02:07:27;;;;;;;7.62;4.82;;;-1.40;99.90;;;;;;4402611;32;20078;-66
2021/12/10 02:09:54;;;;;;;8.98;4.43;;;-1.30;99.90;;;;;;4376979;32;20149;-65
2021/12/10 02:12:22;;;;;;;8.07;3.97;;;-1.30;99.90;;;;;;4370902;32;20078;-65
2021/12/10 02:14:58;;;;;;;7.05;4.28;;;-1.30;99.90;;;;;;4392068;32;20098;-65
2021/12/10 02:17:29;;;;;;;6.00;4.10;;;-1.30;99.90;;;;;;4380380;32;20157;-65
2021/12/10 02:19:56;;;;;;;8.30;4.45;;;-1.30;99.90;;;;;;4392354;32;20159;-66
2021/12/10 02:22:24;;;;;;;5.57;3.97;;;-1.30;99.90;;;;;;4366640;32;20162;-66
2021/12/10 02:24:50;;;;;;;7.22;4.62;;;-1.40;99.90;;;;;;4392387;32;20153;-65
2021/12/10 02:27:17;;;;;;;6.40;4.40;;;-1.40;99.90;;;;;;4366597;32;20078;-66
2021/12/10 02:29:43;;;;;;;6.18;4.07;;;-1.40;99.90;;;;;;4366887;32;20101;-65
2021/12/10 02:32:10;;;;;;;7.22;3.72;;;-1.40;99.90;;;;;;4366737;32;20163;-65
2021/12/10 02:34:38;;;;;;;5.35;3.83;;;-1.40;99.90;;;;;;4366760;32;20085;-65
2021/12/10 02:37:06;;;;;;;5.72;3.60;;;-1.40;99.90;;;;;;4392255;32;20074;-64
2021/12/10 02:39:32;;;;;;;6.82;4.60;;;-1.40;99.90;;;;;;4391760;32;20082;-64
2021/12/10 02:41:59;;;;;;;6.35;4.03;;;-1.40;99.90;;;;;;4391655;32;20097;-66
2021/12/10 02:44:31;;;;;;;6.43;4.10;;;-1.40;99.90;;;;;;4379051;32;20097;-66
2021/12/10 02:46:59;;;;;;;7.25;3.87;;;-1.40;99.90;;;;;;4391703;32;20077;-65
2021/12/10 02:49:26;;;;;;;8.05;4.15;;;-1.40;99.90;;;;;;4379478;32;20164;-65
2021/12/10 02:51:53;;;;;;;6.22;4.57;;;-1.40;99.90;;;;;;4378840;32;20514;-64
2021/12/10 02:54:33;;;;;;;8.05;4.15;;;-1.50;99.90;;;;;;4378766;32;20097;-66
2021/12/10 02:57:03;;;;;;;7.65;4.07;;;-1.40;99.90;;;;;;4391430;32;20085;-65
2021/12/10 02:59:30;;;;;;;7.43;4.68;;;-1.40;99.90;;;;;;4391360;32;20536;-67
2021/12/10 03:01:58;;;;;;;7.22;4.37;;;-1.40;99.90;;;;;;4391147;32;20109;-65
2021/12/10 03:04:27;;;;;;;7.70;5.03;;;-1.50;99.90;;;;;;4378914;32;20175;-64
2021/12/10 03:06:59;;;;;;;6.12;4.62;;;-1.50;99.90;;;;;;4378934;32;20489;-66
2021/12/10 03:09:27;;;;;;;6.80;4.40;;;-1.50;99.90;;;;;;4391297;32;20118;-65
2021/12/10 03:11:56;;;;;;;6.30;4.32;;;-1.50;99.90;;;;;;4391183;32;20177;-66
2021/12/10 03:14:29;;;;;;;6.37;4.22;;;-1.50;99.90;;;;;;4391377;32;20581;-65
2021/12/10 03:16:58;;;;;;;7.82;4.78;;;-1.40;99.90;;;;;;4378675;32;20448;-65
2021/12/10 03:19:25;;;;;;;8.52;4.35;;;-1.40;99.90;;;;;;4392323;32;20508;-64
2021/12/10 03:21:52;;;;;;;7.87;4.40;;;-1.40;99.90;;;;;;4392051;32;20546;-65
2021/12/10 03:24:24;;;;;;;8.07;4.62;;;-1.40;99.90;;;;;;4378457;32;20590;-65
2021/12/10 03:26:52;;;;;;;7.72;5.10;;;-1.30;99.90;;;;;;4365917;32;20467;-64
2021/12/10 03:29:24;;;;;;;9.00;4.82;;;-1.30;99.90;;;;;;4392406;32;20089;-65
2021/12/10 03:31:52;;;;;;;9.82;6.00;;;-1.40;99.90;;;;;;4378277;32;20081;-65
2021/12/10 03:34:19;;;;;;;7.90;4.90;;;-1.30;99.90;;;;;;4391004;32;20097;-65
2021/12/10 03:36:47;;;;;;;10.75;5.60;;;-1.30;99.90;;;;;;4365837;32;20080;-65
2021/12/10 03:39:17;;;;;;;10.25;5.93;;;-1.30;99.90;;;;;;4378244;32;20070;-65
2021/12/10 03:41:44;;;;;;;8.43;5.50;;;-1.40;99.90;;;;;;4378492;32;20074;-65
2021/12/10 03:44:12;;;;;;;7.75;5.05;;;-1.40;99.90;;;;;;4378495;32;20074;-64
2021/12/10 03:46:39;;;;;;;7.70;4.85;;;-1.40;99.90;;;;;;4390909;32;20073;-65
2021/12/10 03:49:07;;;;;;;10.93;5.95;;;-1.40;99.90;;;;;;4378108;32;20147;-65
2021/12/10 03:51:37;;;;;;;9.27;5.18;;;-1.40;99.90;;;;;;4378214;32;20097;-65
2021/12/10 03:54:06;;;;;;;9.38;6.03;;;-1.30;99.90;;;;;;4390885;32;20128;-65
2021/12/10 03:56:36;;;;;;;10.60;5.75;;;-1.20;99.90;;;;;;4390532;32;20093;-65
2021/12/10 03:59:08;;;;;;;11.40;6.57;;;-1.20;99.90;;;;;;4390823;32;20123;-66
2021/12/10 04:01:41;;;;;;;12.50;6.57;;;-1.30;99.90;;;;;;4391805;32;20078;-66
2021/12/10 04:04:16;;;;;;;11.48;6.70;;;-1.20;99.90;;;;;;4390427;32;20093;-65
2021/12/10 04:06:43;;;;;;;13.18;6.62;;;-1.10;99.90;;;;;;4390341;32;20533;-65
2021/12/10 04:09:10;;;;;;;11.20;6.93;;;-1.10;99.90;;;;;;4377753;32;20170;-65
2021/12/10 04:11:40;;;;;;;10.68;6.10;;;-1.20;99.90;;;;;;4377888;32;20171;-66
2021/12/10 04:14:07;;;;;;;12.00;7.37;;;-1.20;99.90;;;;;;4389965;32;20523;-65
2021/12/10 04:16:35;;;;;;;10.55;6.10;;;-1.30;99.90;;;;;;4377555;32;20514;-65
2021/12/10 04:19:08;;;;;;;10.27;6.37;;;-1.20;99.90;;;;;;4378250;32;20534;-65
2021/12/10 04:21:40;;;;;;;8.93;4.97;;;-1.20;99.90;;;;;;4390101;32;20083;-66
2021/12/10 04:24:16;;;;;;;7.47;5.00;;;-1.30;99.90;;;;;;4378085;32;20131;-66
2021/12/10 04:26:43;;;;;;;8.52;5.57;;;-1.30;99.90;;;;;;4391290;32;20096;-65
2021/12/10 04:29:09;;;;;;;12.68;5.70;;;-1.30;99.90;;;;;;4390263;32;20081;-64
2021/12/10 04:31:37;;;;;;;11.20;5.53;;;-1.30;99.90;;;;;;4390245;32;20504;-65
2021/12/10 04:34:04;;;;;;;10.32;5.00;;;-1.30;99.90;;;;;;4390099;32;20078;-65
2021/12/10 04:36:32;;;;;;;9.75;5.90;;;-1.30;99.90;;;;;;4389806;32;20080;-65
2021/12/10 04:38:58;;;;;;;10.05;4.95;;;-1.30;99.90;;;;;;4377311;32;20069;-64
2021/12/10 04:41:25;;;;;;;10.00;5.28;;;-1.30;99.90;;;;;;4377640;32;20150;-65
2021/12/10 04:43:52;;;;;;;10.30;6.43;;;-1.30;99.90;;;;;;4389946;32;20093;-64
2021/12/10 04:46:19;;;;;;;12.05;6.82;;;-1.40;99.90;;;;;;4377989;32;20700;-66
2021/12/10 04:48:55;;;;;;;9.55;4.72;;;-1.40;99.90;;;;;;4390109;32;20576;-64
2021/12/10 04:51:27;;;;;;;10.13;5.50;;;-1.30;99.90;;;;;;4389833;32;20074;-64
2021/12/10 04:53:55;;;;;;;9.90;5.95;;;-1.30;99.90;;;;;;4390065;32;20247;-64
2021/12/10 04:56:22;;;;;;;7.00;4.10;;;-1.30;99.90;;;;;;4391578;32;20073;-65
2021/12/10 04:58:49;;;;;;;7.68;4.37;;;-1.40;99.90;;;;;;4377540;32;20069;-64
2021/12/10 05:01:16;;;;;;;7.93;4.50;;;-1.30;99.90;;;;;;4377255;32;20066;-64
2021/12/10 05:03:44;;;;;;;10.93;5.47;;;-1.40;99.90;;;;;;4364808;32;20093;-66
2021/12/10 05:06:11;;;;;;;10.45;5.60;;;-1.40;99.90;;;;;;4375958;32;20525;-65
2021/12/10 05:08:41;;;;;;;11.65;6.22;;;-1.40;99.90;;;;;;4379803;32;20094;-64
2021/12/10 05:11:10;;;;;;;11.10;6.20;;;-1.40;99.90;;;;;;4374067;32;20066;-62
2021/12/10 05:13:42;;;;;;;9.07;5.50;;;-1.40;99.90;;;;;;4369881;32;20544;-65
2021/12/10 05:16:09;;;;;;;12.07;6.45;;;-1.40;99.90;;;;;;4388050;32;20147;-65
2021/12/10 05:18:40;;;;;;;10.95;6.22;;;-1.50;99.90;;;;;;4373911;32;20106;-63
2021/12/10 05:21:10;;;;;;;11.23;6.22;;;-1.40;99.90;;;;;;4366705;32;20441;-64
2021/12/10 05:23:37;;;;;;;11.25;5.65;;;-1.40;99.90;;;;;;4375117;32;20085;-65
2021/12/10 05:26:05;;;;;;;11.75;6.22;;;-1.40;99.90;;;;;;4384109;32;20083;-63
2021/12/10 05:28:33;;;;;;;13.68;7.50;;;-1.40;99.90;;;;;;4374154;32;20236;-62
2021/12/10 05:31:00;;;;;;;11.48;6.87;;;-1.40;99.90;;;;;;4383296;32;20141;-64
2021/12/10 05:33:29;;;;;;;10.68;6.55;;;-1.30;99.90;;;;;;4367630;32;20082;-65
2021/12/10 05:35:57;;;;;;;8.73;4.68;;;-1.30;99.90;;;;;;4370958;32;20548;-63
2021/12/10 05:38:25;;;;;;;14.38;8.32;;;-1.30;99.90;;;;;;4376087;32;20524;-64
2021/12/10 05:40:55;;;;;;;10.05;5.93;;;-1.40;99.90;;;;;;4380930;32;20070;-63
2021/12/10 05:43:22;;;;;;;11.52;7.62;;;-1.30;99.90;;;;;;4375443;32;20078;-65
2021/12/10 05:45:50;;;;;;;13.77;7.70;;;-1.40;99.90;;;;;;4372670;32;20575;-66
2021/12/10 05:48:17;;;;;;;12.15;6.68;;;-1.30;99.90;;;;;;4383756;32;20150;-65
2021/12/10 05:50:45;;;;;;;12.13;5.37;;;-1.30;99.90;;;;;;4383315;32;20061;-65
2021/12/10 05:53:11;;;;;;;17.05;7.97;;;-1.30;99.90;;;;;;4371758;32;20195;-66
2021/12/10 05:55:40;;;;;;;11.80;7.32;;;-1.30;99.90;;;;;;4394547;32;20089;-65
2021/12/10 05:58:07;;;;;;;12.88;7.50;;;-1.30;99.90;;;;;;4380179;32;20078;-65
2021/12/10 06:00:43;;;;;;;14.75;7.32;;;-1.20;99.90;;;;;;4374016;32;20100;-67
2021/12/10 06:03:10;;;;;;;15.95;8.13;;;-1.30;99.90;;;;;;4381484;32;20089;-68
2021/12/10 06:05:38;;;;;;;13.75;6.28;;;-1.30;99.90;;;;;;4380042;32;20066;-69
2021/12/10 06:08:05;;;;;;;12.57;7.68;;;-1.20;99.90;;;;;;4374868;32;20086;-69
2021/12/10 06:10:33;;;;;;;12.88;7.55;;;-1.20;99.90;;;;;;4376805;32;20518;-69
2021/12/10 06:13:00;;;;;;;14.23;7.10;;;-1.30;99.90;;;;;;4373478;32;20076;-69
2021/12/10 06:15:28;;;;;;;12.10;8.05;;;-1.20;99.90;;;;;;4365890;32;20070;-68
2021/12/10 06:17:55;;;;;;;13.55;8.00;;;-1.30;99.90;;;;;;4378628;32;20484;-68
2021/12/10 06:20:28;;;;;;;11.25;6.87;;;-1.20;99.90;;;;;;4372463;32;20062;-67
2021/12/10 06:22:57;;;;;;;12.35;7.32;;;-1.20;99.90;;;;;;4369207;32;20070;-66
2021/12/10 06:25:24;;;;;;;7.87;3.45;;;-1.30;99.90;;;;;;4360995;32;20493;-66
2021/12/10 06:27:50;;;;;;;8.07;4.78;;;-1.20;99.90;;;;;;4380136;32;20065;-68
2021/12/10 06:30:24;;;;;;;14.75;7.35;;;-1.20;99.90;;;;;;4385351;32;20089;-68
2021/12/10 06:32:54;;;;;;;11.85;7.12;;;-1.20;99.90;;;;;;4385457;32;20069;-70
2021/12/10 06:35:23;;;;;;;12.37;7.15;;;-1.20;99.90;;;;;;4376428;32;20073;-67
2021/12/10 06:37:51;;;;;;;11.32;7.15;;;-1.20;99.90;;;;;;4368284;32;20089;-68
2021/12/10 06:40:21;;;;;;;13.95;8.20;;;-1.10;99.90;;;;;;4376839;32;20097;-67
2021/12/10 06:42:48;;;;;;;16.15;8.80;;;-1.10;99.90;;;;;;4391021;32;20050;-67
2021/12/10 06:45:19;;;;;;;10.65;6.43;;;-1.20;99.90;;;;;;4375423;32;20177;-67
2021/12/10 06:47:50;;;;;;;9.63;5.62;;;-1.10;99.90;;;;;;4372613;32;20120;-66
2021/12/10 06:50:21;;;;;;;10.48;6.50;;;-1.10;99.90;;;;;;4387224;32;20184;-68
2021/12/10 06:52:49;;;;;;;14.13;7.30;;;-1.10;99.90;;;;;;4375204;32;20111;-66
2021/12/10 06:55:16;;;;;;;14.70;7.10;;;-1.10;99.90;;;;;;4373429;32;20096;-64
2021/12/10 06:57:45;;;;;;;13.15;7.87;;;-1.10;99.90;;;;;;4377180;32;20520;-65
2021/12/10 07:00:26;;;;;;;13.90;7.07;;;-1.20;99.90;;;;;;4374982;32;20185;-65
2021/12/10 07:02:52;;;;;;;12.75;8.48;;;-1.10;99.90;;;;;;4381678;32;20162;-65
2021/12/10 07:05:19;;;;;;;14.38;8.65;;;-1.10;99.90;;;;;;4365635;32;20070;-65
2021/12/10 07:07:46;;;;;;;11.43;6.90;;;-1.10;99.90;;;;;;4358806;32;20472;-67
2021/12/10 07:10:16;;;;;;;16.17;9.43;;;-1.10;99.90;;;;;;4363277;32;20087;-66
2021/12/10 07:12:43;;;;;;;12.15;6.32;;;-1.00;99.90;;;;;;4371916;32;20097;-66
2021/12/10 07:15:13;;;;;;;18.23;9.45;;;-1.00;99.90;;;;;;4384208;32;20066;-65
2021/12/10 07:17:47;;;;;;;15.98;7.37;;;-1.10;99.90;;;;;;4379397;32;20231;-68
2021/12/10 07:20:16;;;;;;;18.52;8.38;;;-1.00;99.90;;;;;;4364715;32;20066;-67
2021/12/10 07:22:43;;;;;;;13.50;7.57;;;-1.00;99.90;;;;;;4370369;32;20113;-68
2021/12/10 07:27:50;;;;;;;16.10;8.60;;;-1.10;99.90;;;;;;3816042;37;20482;-68
2021/12/10 07:30:22;;;;;;;14.55;7.57;;;-1.00;99.90;;;;;;4352824;32;20154;-67
2021/12/10 07:32:49;;;;;;;16.10;7.95;;;-1.00;99.90;;;;;;4371964;32;20077;-65
2021/12/10 07:35:16;;;;;;;14.82;8.85;;;-1.00;99.90;;;;;;4359418;32;20129;-66
2021/12/10 07:37:44;;;;;;;13.95;7.82;;;-1.00;99.90;;;;;;4367000;32;20231;-67
2021/12/10 07:40:20;;;;;;;11.35;5.75;;;-1.00;99.90;;;;;;4379803;32;20479;-67
2021/12/10 07:42:47;;;;;;;12.02;7.95;;;-1.00;99.90;;;;;;4349509;32;20601;-64
2021/12/10 07:45:14;;;;;;;14.35;7.10;;;-1.00;99.90;;;;;;4353718;32;20079;-64
2021/12/10 07:47:41;;;;;;;14.35;7.25;;;-1.00;99.90;;;;;;4370869;32;20605;-63
2021/12/10 07:50:13;;;;;;;17.10;7.03;;;-0.90;99.90;;;;;;4369780;32;20075;-63
2021/12/10 07:52:41;;;;;;;12.18;7.30;;;-0.90;99.90;;;;;;4353003;32;20066;-63
2021/12/10 07:55:13;;;;;;;14.13;7.00;;;-1.00;99.90;;;;;;4345564;32;20586;-62
2021/12/10 07:57:41;;;;;;;13.85;6.95;;;-0.90;99.90;;;;;;4358298;32;20083;-62
2021/12/10 08:00:13;;;;;;;10.35;6.18;;;-0.80;99.90;;;;;;4333605;32;20101;-65
2021/12/10 08:02:41;;;;;;;12.30;6.28;;;-1.00;99.90;;;;;;4363334;32;20093;-66
2021/12/10 08:05:08;;;;;;;13.80;7.15;;;-0.90;99.90;;;;;;4363631;32;20082;-64
2021/12/10 08:07:35;;;;;;;12.50;7.72;;;-0.90;99.90;;;;;;4344408;32;20596;-66
2021/12/10 08:10:04;;;;;;;10.30;6.50;;;-1.00;99.90;;;;;;4349944;32;20524;-65
2021/12/10 08:12:31;;;;;;;9.50;5.12;;;-0.90;99.90;;;;;;4364954;32;20096;-63
2021/12/10 08:14:57;;;;;;;12.00;6.65;;;-0.90;99.90;;;;;;4374435;32;20086;-63
2021/12/10 08:17:24;;;;;;;17.30;7.30;;;-1.00;99.90;;;;;;4352698;32;20097;-63
2021/12/10 08:19:51;;;;;;;12.02;6.68;;;-0.90;99.90;;;;;;4365401;32;20073;-63
2021/12/10 08:22:18;;;;;;;11.77;5.15;;;-0.90;99.90;;;;;;4364402;32;20070;-62
2021/12/10 08:24:45;;;;;;;12.55;6.12;;;-0.80;99.90;;;;;;4347310;32;20178;-64
2021/12/10 08:27:13;;;;;;;11.82;6.53;;;-0.80;99.90;;;;;;4331402;32;20155;-63
2021/12/10 08:29:42;;;;;;;16.40;8.20;;;-0.80;99.90;;;;;;4337330;32;20520;-65
2021/12/10 08:32:12;;;;;;;10.98;5.97;;;-0.80;99.90;;;;;;4348030;32;20066;-64
2021/12/10 08:34:41;;;;;;;11.55;5.40;;;-0.80;99.90;;;;;;4352065;32;20159;-65
2021/12/10 08:37:08;;;;;;;14.77;7.53;;;-0.70;99.90;;;;;;4345583;32;20083;-67
2021/12/10 08:39:35;;;;;;;12.27;7.18;;;-0.80;99.90;;;;;;4342762;33;20081;-64
2021/12/10 08:42:02;;;;;;;11.75;6.75;;;-0.80;99.90;;;;;;4309993;32;20070;-64
2021/12/10 08:44:30;;;;;;;12.77;7.95;;;-0.80;99.90;;;;;;4312084;32;20109;-66
2021/12/10 08:46:57;;;;;;;13.57;7.82;;;-0.80;99.90;;;;;;4319973;32;20114;-65
2021/12/10 08:49:23;;;;;;;11.30;7.12;;;-0.80;99.90;;;;;;4315445;32;20103;-65
2021/12/10 08:51:54;;;;;;;11.40;6.72;;;-0.80;99.90;;;;;;4337146;32;20089;-64
2021/12/10 08:54:26;;;;;;;12.20;7.10;;;-0.80;99.90;;;;;;4340731;33;20089;-63
2021/12/10 08:56:54;;;;;;;13.48;6.80;;;-0.70;99.90;;;;;;4344389;33;20074;-64
2021/12/10 08:59:23;;;;;;;9.93;7.78;;;-0.70;99.90;;;;;;4356306;32;20159;-63
2021/12/10 09:01:56;;;;;;;14.45;7.25;;;-0.70;99.90;;;;;;4348854;32;20442;-64
2021/12/10 09:04:24;;;;;;;13.23;7.03;;;-0.70;99.90;;;;;;4336948;32;20174;-63
2021/12/10 09:06:56;;;;;;;12.15;7.07;;;-0.60;99.90;;;;;;4355490;32;20492;-63
2021/12/10 09:09:23;;;;;;;11.15;6.78;;;-0.60;99.90;;;;;;4352128;32;20082;-64
2021/12/10 09:11:55;;;;;;;10.38;6.43;;;-0.60;99.90;;;;;;4346924;32;20074;-74
2021/12/10 09:14:28;;;;;;;12.60;7.35;;;-0.70;99.90;;;;;;4336053;32;20254;-75
2021/12/10 09:16:57;;;;;;;10.43;6.60;;;-0.70;99.90;;;;;;4314073;32;20496;-73
2021/12/10 09:19:24;;;;;;;14.23;7.45;;;-0.60;99.90;;;;;;4327178;32;20085;-73
2021/12/10 09:21:51;;;;;;;12.75;7.07;;;-0.60;99.90;;;;;;4352063;32;20078;-73
2021/12/10 09:24:21;;;;;;;13.93;6.15;;;-0.60;99.90;;;;;;4319067;33;20087;-73
2021/12/10 09:26:54;;;;;;;13.13;7.43;;;-0.60;99.90;;;;;;4342416;32;20171;-74
2021/12/10 09:29:21;;;;;;;13.82;6.60;;;-0.60;99.90;;;;;;4352264;32;20450;-71
2021/12/10 09:31:48;;;;;;;11.65;7.30;;;-0.70;99.90;;;;;;4358097;32;20193;-72
2021/12/10 09:34:16;;;;;;;16.90;7.35;;;-0.60;99.90;;;;;;4342820;32;20429;-76
2021/12/10 09:36:46;;;;;;;14.75;7.65;;;-0.60;99.90;;;;;;4342485;32;20093;-75
2021/12/10 09:39:17;;;;;;;18.05;7.40;;;-0.70;99.90;;;;;;4345234;32;20161;-75
2021/12/10 09:41:44;;;;;;;13.60;6.53;;;-0.60;99.90;;;;;;4320858;32;20104;-75
2021/12/10 09:44:11;;;;;;;9.57;6.30;;;-0.60;99.90;;;;;;4322590;32;20070;-75
2021/12/10 09:46:39;;;;;;;11.48;6.45;;;-0.60;99.90;;;;;;4329467;33;20083;-74
2021/12/10 09:49:09;;;;;;;12.60;7.15;;;-0.60;99.90;;;;;;4328892;32;20233;-73
2021/12/10 09:51:46;;;;;;;10.80;6.93;;;-0.60;99.90;;;;;;4354159;32;20141;-74
2021/12/10 09:54:17;;;;;;;8.95;5.70;;;-0.50;99.90;;;;;;4342145;32;20175;-75
2021/12/10 09:56:50;;;;;;;15.77;6.40;;;-0.60;99.90;;;;;;4347808;32;20497;-75
2021/12/10 09:59:18;;;;;;;9.80;5.68;;;-0.50;99.90;;;;;;4345886;33;20075;-74
2021/12/10 10:01:47;;;;;;;9.93;6.57;;;-0.50;99.90;;;;;;4333325;33;20513;-75
2021/12/10 10:04:18;;;;;;;11.48;6.22;;;-0.50;99.90;;;;;;4333671;33;20100;-75
2021/12/10 10:06:54;;;;;;;9.40;6.57;;;-0.50;99.90;;;;;;4346435;33;20075;-76
2021/12/10 10:09:22;;;;;;;12.00;6.85;;;-0.50;99.90;;;;;;4333358;33;20109;-75
2021/12/10 10:11:58;;;;;;;10.50;5.85;;;-0.50;99.90;;;;;;4321506;33;20176;-76
2021/12/10 10:14:25;;;;;;;8.25;4.25;;;-0.40;99.90;;;;;;4333841;33;20098;-76
2021/12/10 10:16:52;;;;;;;10.18;7.20;;;-0.40;99.90;;;;;;4321618;32;20089;-74
2021/12/10 10:19:20;;;;;;;13.15;7.07;;;-0.40;99.90;;;;;;4335548;32;20152;-73
2021/12/10 10:21:53;;;;;;;11.82;7.60;;;-0.40;99.90;;;;;;4335819;32;20320;-76
2021/12/10 10:24:20;;;;;;;8.50;6.72;;;-0.40;99.90;;;;;;4337261;32;20175;-75
2021/12/10 10:26:54;;;;;;;10.15;7.10;;;-0.40;99.90;;;;;;4332895;32;20517;-75
2021/12/10 10:29:26;;;;;;;10.63;6.22;;;-0.40;99.90;;;;;;4337636;32;20081;-76
2021/12/10 10:32:00;;;;;;;9.90;6.62;;;-0.40;99.90;;;;;;4335998;32;20070;-76
2021/12/10 10:34:27;;;;;;;10.07;4.85;;;-0.40;99.90;;;;;;4341268;32;20090;-76
2021/12/10 10:36:55;;;;;;;8.80;5.68;;;-0.40;99.90;;;;;;4345310;33;20078;-77
2021/12/10 10:39:32;;;;;;;6.97;4.90;;;-0.50;99.90;;;;;;4334005;32;20473;-75
2021/12/10 10:42:01;;;;;;;8.75;5.95;;;-0.40;99.90;;;;;;4347907;32;20083;-76
2021/12/10 10:44:27;;;;;;;9.07;5.53;;;-0.40;99.90;;;;;;4334538;32;20081;-73
2021/12/10 10:46:59;;;;;;;10.10;5.32;;;-0.40;99.90;;;;;;4322588;32;20082;-71
2021/12/10 10:49:47;;;;;;;8.77;5.62;;;-0.40;99.90;;;;;;4336671;32;20075;-74
2021/12/10 10:52:30;;;;;;;8.88;5.00;;;-0.40;99.90;;;;;;4334272;32;20110;-72
2021/12/10 10:55:27;;;;;;;9.70;5.00;;;-0.40;99.90;;;;;;4342992;32;20061;-72
2021/12/10 10:58:19;;;;;;;8.90;5.28;;;-0.30;99.90;;;;;;4346859;32;20078;-73
2021/12/10 11:01:14;;;;;;;8.65;5.15;;;-0.40;99.90;;;;;;4342694;32;20070;-75
2021/12/10 11:03:58;;;;;;;7.37;5.80;;;-0.40;99.90;;;;;;4332593;32;20580;-72
2021/12/10 11:06:30;;;;;;;9.15;5.10;;;-0.50;99.90;;;;;;4345450;32;20081;-73
2021/12/10 11:09:27;;;;;;;9.68;6.12;;;-0.50;99.90;;;;;;4338860;32;20425;-75
2021/12/10 11:12:04;;;;;;;10.60;5.65;;;-0.50;99.90;;;;;;4354659;32;20071;-72
2021/12/10 11:14:40;;;;;;;10.82;5.85;;;-0.60;99.90;;;;;;4327607;32;20082;-72
2021/12/10 11:17:10;;;;;;;8.25;5.70;;;-0.50;99.90;;;;;;4347416;32;20114;-74
2021/12/10 11:19:37;;;;;;;10.13;6.20;;;-0.50;99.90;;;;;;4344941;32;20717;-72
2021/12/10 11:22:11;;;;;;;9.40;5.68;;;-0.50;99.90;;;;;;4341179;32;20090;-74
2021/12/10 11:24:46;;;;;;;8.15;5.18;;;-0.50;99.90;;;;;;4335630;32;20519;-72
2021/12/10 11:27:42;;;;;;;12.07;5.65;;;-0.50;99.90;;;;;;4330317;32;20122;-77
2021/12/10 11:30:26;;;;;;;8.13;5.25;;;-0.50;99.90;;;;;;4332824;32;20082;-76
2021/12/10 11:33:18;;;;;;;8.10;5.05;;;-0.50;99.90;;;;;;4337914;32;20075;-75
2021/12/10 11:36:01;;;;;;;8.13;5.20;;;-0.50;99.90;;;;;;4339529;32;20070;-62
2021/12/10 11:38:33;;;;;;;6.82;5.25;;;-0.50;99.90;;;;;;4321195;32;20257;-72
2021/12/10 11:41:04;;;;;;;11.32;6.95;;;-0.50;99.90;;;;;;4324270;32;20125;-74
2021/12/10 11:44:07;;;;;;;8.45;5.45;;;-0.50;99.90;;;;;;4347962;32;20199;-73
2021/12/10 11:47:12;;;;;;;11.70;7.10;;;-0.50;99.90;;;;;;4347079;32;20164;-72
2021/12/10 11:49:40;;;;;;;12.73;5.57;;;-0.50;99.90;;;;;;4351311;32;20085;-76
2021/12/10 11:52:23;;;;;;;7.00;4.07;;;-0.50;99.90;;;;;;4349148;32;20561;-79
2021/12/10 11:54:59;;;;;;;7.53;4.62;;;-0.50;99.90;;;;;;4344811;32;20090;-76
2021/12/10 11:57:43;;;;;;;6.37;5.12;;;-0.50;99.90;;;;;;4330778;32;20095;-76
2021/12/10 12:00:15;;;;;;;9.00;5.15;;;-0.50;99.90;;;;;;4346339;32;20074;-76
2021/12/10 12:03:00;;;;;;;9.02;5.00;;;-0.50;99.90;;;;;;4339852;32;20097;-75
2021/12/10 12:05:32;;;;;;;6.90;4.43;;;-0.50;99.90;;;;;;4338071;32;20085;-72
2021/12/10 12:08:04;;;;;;;7.30;5.10;;;-0.50;99.90;;;;;;4332106;32;20094;-81
2021/12/10 12:10:39;;;;;;;7.40;4.82;;;-0.60;99.90;;;;;;4338417;32;20094;-79
2021/12/10 12:16:01;;;;;;;6.82;5.12;;;-0.60;99.90;;;;;;4339897;32;20069;-80
2021/12/10 12:18:37;;;;;;;8.48;5.57;;;-0.60;99.90;;;;;;4340972;32;20536;-74
2021/12/10 12:27:08;;;;;;;7.18;5.40;;;-0.50;99.90;;;;;;4341735;32;20078;-75
2021/12/10 12:29:46;;;;;;;7.37;4.85;;;-0.60;99.90;;;;;;4354433;32;20130;-72
2021/12/10 12:32:24;;;;;;;10.98;5.07;;;-0.60;99.90;;;;;;4347091;32;20067;-69
2021/12/10 12:34:51;;;;;;;9.00;5.55;;;-0.60;99.90;;;;;;4350204;32;20058;-73
2021/12/10 12:37:21;;;;;;;8.40;5.25;;;-0.60;99.90;;;;;;4333182;32;20070;-74
2021/12/10 12:39:58;;;;;;;11.60;7.62;;;-0.60;99.90;;;;;;4341887;32;20106;-74
2021/12/10 12:42:29;;;;;;;9.20;5.43;;;-0.60;99.90;;;;;;4357326;32;20500;-72
2021/12/10 12:45:04;;;;;;;6.40;3.85;;;-0.60;99.90;;;;;;4349798;32;20094;-70
2021/12/10 12:47:34;;;;;;;8.57;5.62;;;-0.50;99.90;;;;;;4350524;32;20110;-73
2021/12/10 12:50:39;;;;;;;7.57;4.90;;;-0.50;99.90;;;;;;4342191;32;20059;-73
2021/12/10 12:53:11;;;;;;;7.22;4.25;;;-0.60;99.90;;;;;;4349101;32;20107;-69
2021/12/10 12:55:54;;;;;;;5.87;4.28;;;-0.60;99.90;;;;;;4350553;32;20105;-71
2021/12/10 12:58:31;;;;;;;7.03;5.10;;;-0.60;99.90;;;;;;4315390;32;20067;-75
2021/12/10 13:01:24;;;;;;;9.00;4.53;;;-0.60;99.90;;;;;;4345692;32;20501;-75
2021/12/10 13:04:18;;;;;;;7.28;4.45;;;-0.60;99.90;;;;;;4331930;33;20090;-74
2021/12/10 13:06:50;;;;;;;6.90;4.50;;;-0.60;99.90;;;;;;4352809;32;20078;-73
2021/12/10 13:09:47;;;;;;;6.75;4.37;;;-0.60;99.90;;;;;;4359755;32;20448;-72
2021/12/10 13:12:46;;;;;;;7.47;4.07;;;-0.60;99.90;;;;;;4317704;32;20535;-77
2021/12/10 13:15:21;;;;;;;8.95;4.68;;;-0.60;99.90;;;;;;4355061;32;20110;-75
2021/12/10 13:17:55;;;;;;;9.88;4.80;;;-0.60;99.90;;;;;;4342855;32;20101;-75
2021/12/10 13:20:27;;;;;;;10.32;4.57;;;-0.60;99.90;;;;;;4341919;32;20159;-77
2021/12/10 13:22:59;;;;;;;7.30;4.87;;;-0.60;99.90;;;;;;4327718;32;20097;-75
2021/12/10 13:25:29;;;;;;;7.03;4.78;;;-0.70;99.90;;;;;;4351745;32;20540;-75
2021/12/10 13:27:57;;;;;;;7.47;4.62;;;-0.70;99.90;;;;;;4339357;32;20082;-73